sensor_id;sensor_type;location;lat;lon;timestamp;P1;durP1;ratioP1;P2;durP2;ratioP2
34737;SDS011;39910;47.154;27.614;2023-03-01T00:02:10;9.18;;;8.75;;
34737;SDS011;39910;47.154;27.614;2023-03-01T00:04:35;9.40;;;8.90;;
34737;SDS011;39910;47.154;27.614;2023-03-01T00:07:00;8.98;;;8.55;;
34737;SDS011;39910;47.154;27.614;2023-03-01T00:09:26;9.38;;;8.88;;
34737;SDS011;39910;47.154;27.614;2023-03-01T00:11:51;9.32;;;8.82;;
34737;SDS011;39910;47.154;27.614;2023-03-01T00:14:16;9.48;;;8.98;;
34737;SDS011;39910;47.154;27.614;2023-03-01T00:16:42;9.75;;;9.25;;
34737;SDS011;39910;47.154;27.614;2023-03-01T00:19:12;9.73;;;9.23;;
34737;SDS011;39910;47.154;27.614;2023-03-01T00:21:37;9.43;;;8.93;;
34737;SDS011;39910;47.154;27.614;2023-03-01T00:24:03;9.30;;;8.80;;
34737;SDS011;39910;47.154;27.614;2023-03-01T00:26:29;8.73;;;8.32;;
34737;SDS011;39910;47.154;27.614;2023-03-01T00:28:54;8.90;;;8.50;;
34737;SDS011;39910;47.154;27.614;2023-03-01T00:31:23;8.77;;;8.38;;
34737;SDS011;39910;47.154;27.614;2023-03-01T00:33:48;8.93;;;8.52;;
34737;SDS011;39910;47.154;27.614;2023-03-01T00:36:17;9.73;;;9.23;;
34737;SDS011;39910;47.154;27.614;2023-03-01T00:38:43;9.15;;;8.68;;
34737;SDS011;39910;47.154;27.614;2023-03-01T00:41:10;8.80;;;8.40;;
34737;SDS011;39910;47.154;27.614;2023-03-01T00:43:36;9.57;;;9.07;;
34737;SDS011;39910;47.154;27.614;2023-03-01T00:46:08;9.55;;;9.05;;
34737;SDS011;39910;47.154;27.614;2023-03-01T00:48:34;9.23;;;8.73;;
34737;SDS011;39910;47.154;27.614;2023-03-01T00:51:06;8.60;;;8.20;;
34737;SDS011;39910;47.154;27.614;2023-03-01T00:53:32;9.10;;;8.68;;
34737;SDS011;39910;47.154;27.614;2023-03-01T00:55:58;9.60;;;9.10;;
34737;SDS011;39910;47.154;27.614;2023-03-01T00:58:23;9.65;;;9.15;;
34737;SDS011;39910;47.154;27.614;2023-03-01T01:00:49;8.85;;;8.45;;
34737;SDS011;39910;47.154;27.614;2023-03-01T01:03:14;8.93;;;8.52;;
34737;SDS011;39910;47.154;27.614;2023-03-01T01:05:39;8.98;;;8.57;;
34737;SDS011;39910;47.154;27.614;2023-03-01T01:08:05;9.00;;;8.60;;
34737;SDS011;39910;47.154;27.614;2023-03-01T01:10:33;9.60;;;9.10;;
34737;SDS011;39910;47.154;27.614;2023-03-01T01:12:58;8.93;;;8.52;;
34737;SDS011;39910;47.154;27.614;2023-03-01T01:15:24;8.95;;;8.55;;
34737;SDS011;39910;47.154;27.614;2023-03-01T01:17:49;8.95;;;8.55;;
34737;SDS011;39910;47.154;27.614;2023-03-01T01:20:14;9.10;;;8.60;;
34737;SDS011;39910;47.154;27.614;2023-03-01T01:22:39;9.85;;;9.35;;
34737;SDS011;39910;47.154;27.614;2023-03-01T01:25:05;9.05;;;8.63;;
34737;SDS011;39910;47.154;27.614;2023-03-01T01:27:30;9.65;;;9.15;;
34737;SDS011;39910;47.154;27.614;2023-03-01T01:29:56;9.10;;;8.70;;
34737;SDS011;39910;47.154;27.614;2023-03-01T01:32:21;9.80;;;9.30;;
34737;SDS011;39910;47.154;27.614;2023-03-01T01:34:46;9.40;;;8.90;;
34737;SDS011;39910;47.154;27.614;2023-03-01T01:37:12;9.00;;;8.60;;
34737;SDS011;39910;47.154;27.614;2023-03-01T01:39:37;9.45;;;8.95;;
34737;SDS011;39910;47.154;27.614;2023-03-01T01:42:02;9.38;;;8.88;;
34737;SDS011;39910;47.154;27.614;2023-03-01T01:44:28;9.45;;;8.95;;
34737;SDS011;39910;47.154;27.614;2023-03-01T01:47:04;9.38;;;8.88;;
34737;SDS011;39910;47.154;27.614;2023-03-01T01:55:14;9.52;;;9.02;;
34737;SDS011;39910;47.154;27.614;2023-03-01T01:57:14;9.43;;;8.93;;
34737;SDS011;39910;47.154;27.614;2023-03-01T01:59:39;9.93;;;9.43;;
34737;SDS011;39910;47.154;27.614;2023-03-01T02:02:08;9.10;;;8.70;;
34737;SDS011;39910;47.154;27.614;2023-03-01T02:04:33;9.85;;;9.35;;
34737;SDS011;39910;47.154;27.614;2023-03-01T02:07:03;9.82;;;9.32;;
34737;SDS011;39910;47.154;27.614;2023-03-01T02:09:30;9.82;;;9.32;;
34737;SDS011;39910;47.154;27.614;2023-03-01T02:11:55;9.18;;;8.77;;
34737;SDS011;39910;47.154;27.614;2023-03-01T02:14:20;9.52;;;9.02;;
34737;SDS011;39910;47.154;27.614;2023-03-01T02:16:46;9.43;;;8.93;;
34737;SDS011;39910;47.154;27.614;2023-03-01T02:19:13;9.80;;;9.30;;
34737;SDS011;39910;47.154;27.614;2023-03-01T02:29:05;9.70;;;9.20;;
34737;SDS011;39910;47.154;27.614;2023-03-01T02:31:31;10.95;;;10.27;;
34737;SDS011;39910;47.154;27.614;2023-03-01T02:34:14;8.95;;;8.55;;
34737;SDS011;39910;47.154;27.614;2023-03-01T02:36:51;9.93;;;9.43;;
34737;SDS011;39910;47.154;27.614;2023-03-01T02:39:18;9.65;;;9.15;;
34737;SDS011;39910;47.154;27.614;2023-03-01T02:41:49;9.15;;;8.75;;
34737;SDS011;39910;47.154;27.614;2023-03-01T02:44:15;9.82;;;9.32;;
34737;SDS011;39910;47.154;27.614;2023-03-01T02:46:47;10.27;;;9.70;;
34737;SDS011;39910;47.154;27.614;2023-03-01T02:49:21;9.00;;;8.60;;
34737;SDS011;39910;47.154;27.614;2023-03-01T02:54:36;9.80;;;9.30;;
34737;SDS011;39910;47.154;27.614;2023-03-01T02:57:04;9.50;;;9.00;;
34737;SDS011;39910;47.154;27.614;2023-03-01T02:59:31;9.57;;;9.07;;
34737;SDS011;39910;47.154;27.614;2023-03-01T03:02:04;9.35;;;8.85;;
34737;SDS011;39910;47.154;27.614;2023-03-01T03:04:29;9.90;;;9.40;;
34737;SDS011;39910;47.154;27.614;2023-03-01T03:06:54;11.18;;;10.48;;
34737;SDS011;39910;47.154;27.614;2023-03-01T03:09:20;10.23;;;9.63;;
34737;SDS011;39910;47.154;27.614;2023-03-01T03:11:45;9.75;;;9.25;;
34737;SDS011;39910;47.154;27.614;2023-03-01T03:14:11;9.55;;;9.05;;
34737;SDS011;39910;47.154;27.614;2023-03-01T03:16:50;9.50;;;9.00;;
34737;SDS011;39910;47.154;27.614;2023-03-01T03:19:15;8.60;;;8.20;;
34737;SDS011;39910;47.154;27.614;2023-03-01T03:21:42;9.35;;;8.85;;
34737;SDS011;39910;47.154;27.614;2023-03-01T03:24:08;9.32;;;8.82;;
34737;SDS011;39910;47.154;27.614;2023-03-01T03:26:34;10.23;;;9.63;;
34737;SDS011;39910;47.154;27.614;2023-03-01T03:29:00;9.60;;;9.10;;
34737;SDS011;39910;47.154;27.614;2023-03-01T03:31:26;9.10;;;8.70;;
34737;SDS011;39910;47.154;27.614;2023-03-01T03:33:51;8.90;;;8.50;;
34737;SDS011;39910;47.154;27.614;2023-03-01T03:36:18;8.57;;;8.18;;
34737;SDS011;39910;47.154;27.614;2023-03-01T03:38:44;9.75;;;9.25;;
34737;SDS011;39910;47.154;27.614;2023-03-01T03:41:11;9.90;;;9.40;;
34737;SDS011;39910;47.154;27.614;2023-03-01T03:43:37;9.75;;;9.25;;
34737;SDS011;39910;47.154;27.614;2023-03-01T03:46:03;8.90;;;8.50;;
34737;SDS011;39910;47.154;27.614;2023-03-01T03:48:35;9.13;;;8.73;;
34737;SDS011;39910;47.154;27.614;2023-03-01T03:51:00;9.70;;;9.20;;
34737;SDS011;39910;47.154;27.614;2023-03-01T03:53:26;9.43;;;8.93;;
34737;SDS011;39910;47.154;27.614;2023-03-01T03:55:52;9.75;;;9.25;;
34737;SDS011;39910;47.154;27.614;2023-03-01T03:58:18;8.90;;;8.50;;
34737;SDS011;39910;47.154;27.614;2023-03-01T04:00:44;9.57;;;9.07;;
34737;SDS011;39910;47.154;27.614;2023-03-01T04:03:11;10.27;;;9.70;;
34737;SDS011;39910;47.154;27.614;2023-03-01T04:05:37;10.50;;;9.90;;
34737;SDS011;39910;47.154;27.614;2023-03-01T04:08:02;10.45;;;9.85;;
34737;SDS011;39910;47.154;27.614;2023-03-01T04:10:29;9.70;;;9.20;;
34737;SDS011;39910;47.154;27.614;2023-03-01T04:12:55;9.68;;;9.18;;
34737;SDS011;39910;47.154;27.614;2023-03-01T04:15:24;10.02;;;9.52;;
34737;SDS011;39910;47.154;27.614;2023-03-01T04:17:50;9.85;;;9.35;;
34737;SDS011;39910;47.154;27.614;2023-03-01T04:20:16;8.95;;;8.55;;
34737;SDS011;39910;47.154;27.614;2023-03-01T04:22:42;9.98;;;9.48;;
34737;SDS011;39910;47.154;27.614;2023-03-01T04:25:08;9.43;;;8.95;;
34737;SDS011;39910;47.154;27.614;2023-03-01T04:27:34;10.15;;;9.60;;
34737;SDS011;39910;47.154;27.614;2023-03-01T04:29:59;10.05;;;9.55;;
34737;SDS011;39910;47.154;27.614;2023-03-01T04:32:24;9.63;;;9.13;;
34737;SDS011;39910;47.154;27.614;2023-03-01T04:34:50;9.80;;;9.30;;
34737;SDS011;39910;47.154;27.614;2023-03-01T04:37:15;10.93;;;10.23;;
34737;SDS011;39910;47.154;27.614;2023-03-01T04:39:41;10.25;;;9.65;;
34737;SDS011;39910;47.154;27.614;2023-03-01T04:42:12;9.48;;;8.98;;
34737;SDS011;39910;47.154;27.614;2023-03-01T04:44:38;11.20;;;10.50;;
34737;SDS011;39910;47.154;27.614;2023-03-01T04:47:03;9.65;;;9.15;;
34737;SDS011;39910;47.154;27.614;2023-03-01T04:49:28;9.80;;;9.30;;
34737;SDS011;39910;47.154;27.614;2023-03-01T04:51:53;9.73;;;9.23;;
34737;SDS011;39910;47.154;27.614;2023-03-01T04:54:19;10.30;;;9.70;;
34737;SDS011;39910;47.154;27.614;2023-03-01T04:56:44;9.73;;;9.23;;
34737;SDS011;39910;47.154;27.614;2023-03-01T04:59:09;10.10;;;9.57;;
34737;SDS011;39910;47.154;27.614;2023-03-01T05:01:37;10.73;;;10.13;;
34737;SDS011;39910;47.154;27.614;2023-03-01T05:04:03;10.40;;;9.80;;
34737;SDS011;39910;47.154;27.614;2023-03-01T05:06:30;10.30;;;9.70;;
34737;SDS011;39910;47.154;27.614;2023-03-01T05:08:56;9.65;;;9.15;;
34737;SDS011;39910;47.154;27.614;2023-03-01T05:11:21;9.68;;;9.18;;
34737;SDS011;39910;47.154;27.614;2023-03-01T05:13:46;9.77;;;9.27;;
34737;SDS011;39910;47.154;27.614;2023-03-01T05:16:12;10.00;;;9.48;;
34737;SDS011;39910;47.154;27.614;2023-03-01T05:18:37;11.18;;;10.48;;
34737;SDS011;39910;47.154;27.614;2023-03-01T05:21:03;10.07;;;9.50;;
34737;SDS011;39910;47.154;27.614;2023-03-01T05:23:30;9.27;;;8.77;;
34737;SDS011;39910;47.154;27.614;2023-03-01T05:25:57;9.35;;;8.85;;
34737;SDS011;39910;47.154;27.614;2023-03-01T05:28:22;9.48;;;8.98;;
34737;SDS011;39910;47.154;27.614;2023-03-01T05:30:48;9.18;;;8.68;;
34737;SDS011;39910;47.154;27.614;2023-03-01T05:33:16;8.43;;;8.02;;
34737;SDS011;39910;47.154;27.614;2023-03-01T05:35:42;9.25;;;8.75;;
34737;SDS011;39910;47.154;27.614;2023-03-01T05:38:11;8.63;;;8.23;;
34737;SDS011;39910;47.154;27.614;2023-03-01T05:40:38;9.10;;;8.60;;
34737;SDS011;39910;47.154;27.614;2023-03-01T05:43:03;9.85;;;9.35;;
34737;SDS011;39910;47.154;27.614;2023-03-01T05:45:30;9.27;;;8.77;;
34737;SDS011;39910;47.154;27.614;2023-03-01T05:47:57;9.57;;;9.07;;
34737;SDS011;39910;47.154;27.614;2023-03-01T05:50:24;9.70;;;9.20;;
34737;SDS011;39910;47.154;27.614;2023-03-01T05:53:00;10.38;;;9.88;;
34737;SDS011;39910;47.154;27.614;2023-03-01T05:55:26;9.70;;;9.20;;
34737;SDS011;39910;47.154;27.614;2023-03-01T05:57:51;9.60;;;9.10;;
34737;SDS011;39910;47.154;27.614;2023-03-01T06:00:17;10.27;;;9.77;;
34737;SDS011;39910;47.154;27.614;2023-03-01T06:02:43;9.40;;;8.93;;
34737;SDS011;39910;47.154;27.614;2023-03-01T06:05:09;9.20;;;8.80;;
34737;SDS011;39910;47.154;27.614;2023-03-01T06:07:34;9.82;;;9.32;;
34737;SDS011;39910;47.154;27.614;2023-03-01T06:10:00;9.90;;;9.40;;
34737;SDS011;39910;47.154;27.614;2023-03-01T06:12:25;9.35;;;8.95;;
34737;SDS011;39910;47.154;27.614;2023-03-01T06:14:51;9.82;;;9.32;;
34737;SDS011;39910;47.154;27.614;2023-03-01T06:17:16;10.35;;;9.85;;
34737;SDS011;39910;47.154;27.614;2023-03-01T06:19:41;10.32;;;9.82;;
34737;SDS011;39910;47.154;27.614;2023-03-01T06:22:06;9.85;;;9.43;;
34737;SDS011;39910;47.154;27.614;2023-03-01T06:24:32;11.10;;;10.60;;
34737;SDS011;39910;47.154;27.614;2023-03-01T06:26:58;9.52;;;9.13;;
34737;SDS011;39910;47.154;27.614;2023-03-01T06:29:23;10.02;;;9.57;;
34737;SDS011;39910;47.154;27.614;2023-03-01T06:31:48;9.93;;;9.50;;
34737;SDS011;39910;47.154;27.614;2023-03-01T06:34:14;9.90;;;9.50;;
34737;SDS011;39910;47.154;27.614;2023-03-01T06:36:39;10.02;;;9.52;;
34737;SDS011;39910;47.154;27.614;2023-03-01T06:39:05;10.70;;;10.20;;
34737;SDS011;39910;47.154;27.614;2023-03-01T06:41:31;10.60;;;10.10;;
34737;SDS011;39910;47.154;27.614;2023-03-01T06:43:56;11.70;;;11.10;;
34737;SDS011;39910;47.154;27.614;2023-03-01T06:46:21;11.63;;;11.02;;
34737;SDS011;39910;47.154;27.614;2023-03-01T06:48:48;11.30;;;10.70;;
34737;SDS011;39910;47.154;27.614;2023-03-01T06:51:13;12.32;;;11.68;;
34737;SDS011;39910;47.154;27.614;2023-03-01T06:53:38;11.98;;;11.30;;
34737;SDS011;39910;47.154;27.614;2023-03-01T06:56:04;11.07;;;10.50;;
34737;SDS011;39910;47.154;27.614;2023-03-01T06:58:29;10.90;;;10.32;;
34737;SDS011;39910;47.154;27.614;2023-03-01T07:00:55;11.63;;;11.02;;
34737;SDS011;39910;47.154;27.614;2023-03-01T07:03:20;11.13;;;10.52;;
34737;SDS011;39910;47.154;27.614;2023-03-01T07:05:47;10.40;;;9.90;;
34737;SDS011;39910;47.154;27.614;2023-03-01T07:08:14;11.10;;;10.50;;
34737;SDS011;39910;47.154;27.614;2023-03-01T07:10:40;11.35;;;10.75;;
34737;SDS011;39910;47.154;27.614;2023-03-01T07:13:05;9.70;;;9.23;;
34737;SDS011;39910;47.154;27.614;2023-03-01T07:15:32;10.13;;;9.63;;
34737;SDS011;39910;47.154;27.614;2023-03-01T07:17:57;10.27;;;9.77;;
34737;SDS011;39910;47.154;27.614;2023-03-01T07:20:23;10.35;;;9.85;;
34737;SDS011;39910;47.154;27.614;2023-03-01T07:22:50;10.20;;;9.70;;
34737;SDS011;39910;47.154;27.614;2023-03-01T07:25:16;11.25;;;10.65;;
34737;SDS011;39910;47.154;27.614;2023-03-01T07:27:41;11.13;;;10.52;;
34737;SDS011;39910;47.154;27.614;2023-03-01T07:30:07;11.35;;;10.75;;
34737;SDS011;39910;47.154;27.614;2023-03-01T07:32:32;11.52;;;10.93;;
34737;SDS011;39910;47.154;27.614;2023-03-01T07:34:57;11.00;;;10.40;;
34737;SDS011;39910;47.154;27.614;2023-03-01T07:37:22;12.15;;;11.45;;
34737;SDS011;39910;47.154;27.614;2023-03-01T07:39:48;10.80;;;10.25;;
34737;SDS011;39910;47.154;27.614;2023-03-01T07:42:13;10.27;;;9.77;;
34737;SDS011;39910;47.154;27.614;2023-03-01T07:44:38;10.82;;;10.23;;
34737;SDS011;39910;47.154;27.614;2023-03-01T07:47:04;11.35;;;10.75;;
34737;SDS011;39910;47.154;27.614;2023-03-01T07:49:29;10.38;;;9.88;;
34737;SDS011;39910;47.154;27.614;2023-03-01T07:51:54;10.32;;;9.82;;
34737;SDS011;39910;47.154;27.614;2023-03-01T07:54:20;11.00;;;10.40;;
34737;SDS011;39910;47.154;27.614;2023-03-01T07:56:45;11.25;;;10.65;;
34737;SDS011;39910;47.154;27.614;2023-03-01T07:59:11;12.27;;;11.57;;
34737;SDS011;39910;47.154;27.614;2023-03-01T08:01:36;10.98;;;10.38;;
34737;SDS011;39910;47.154;27.614;2023-03-01T08:04:01;11.00;;;10.40;;
34737;SDS011;39910;47.154;27.614;2023-03-01T08:06:26;11.35;;;10.75;;
34737;SDS011;39910;47.154;27.614;2023-03-01T08:08:52;10.43;;;9.93;;
34737;SDS011;39910;47.154;27.614;2023-03-01T08:11:20;10.05;;;9.55;;
34737;SDS011;39910;47.154;27.614;2023-03-01T08:13:47;10.00;;;9.50;;
34737;SDS011;39910;47.154;27.614;2023-03-01T08:16:13;11.02;;;10.52;;
34737;SDS011;39910;47.154;27.614;2023-03-01T08:18:38;10.70;;;10.20;;
34737;SDS011;39910;47.154;27.614;2023-03-01T08:21:14;10.40;;;9.90;;
34737;SDS011;39910;47.154;27.614;2023-03-01T08:23:40;11.15;;;10.65;;
34737;SDS011;39910;47.154;27.614;2023-03-01T08:26:16;11.20;;;10.70;;
34737;SDS011;39910;47.154;27.614;2023-03-01T08:28:42;11.20;;;10.70;;
34737;SDS011;39910;47.154;27.614;2023-03-01T08:31:15;12.38;;;11.77;;
34737;SDS011;39910;47.154;27.614;2023-03-01T08:33:40;11.30;;;10.80;;
34737;SDS011;39910;47.154;27.614;2023-03-01T08:36:06;10.85;;;10.35;;
34737;SDS011;39910;47.154;27.614;2023-03-01T08:38:32;11.15;;;10.65;;
34737;SDS011;39910;47.154;27.614;2023-03-01T08:40:59;9.75;;;9.35;;
34737;SDS011;39910;47.154;27.614;2023-03-01T08:43:24;10.85;;;10.35;;
34737;SDS011;39910;47.154;27.614;2023-03-01T08:45:49;11.38;;;10.88;;
34737;SDS011;39910;47.154;27.614;2023-03-01T08:48:15;12.00;;;11.40;;
34737;SDS011;39910;47.154;27.614;2023-03-01T08:50:40;12.63;;;12.02;;
34737;SDS011;39910;47.154;27.614;2023-03-01T08:53:06;11.95;;;11.35;;
34737;SDS011;39910;47.154;27.614;2023-03-01T08:55:31;10.95;;;10.45;;
34737;SDS011;39910;47.154;27.614;2023-03-01T08:57:56;10.65;;;10.15;;
34737;SDS011;39910;47.154;27.614;2023-03-01T09:00:24;11.02;;;10.52;;
34737;SDS011;39910;47.154;27.614;2023-03-01T09:02:50;10.90;;;10.40;;
34737;SDS011;39910;47.154;27.614;2023-03-01T09:05:15;10.80;;;10.30;;
34737;SDS011;39910;47.154;27.614;2023-03-01T09:07:40;10.45;;;9.95;;
34737;SDS011;39910;47.154;27.614;2023-03-01T09:10:06;11.25;;;10.75;;
34737;SDS011;39910;47.154;27.614;2023-03-01T09:12:31;10.70;;;10.20;;
34737;SDS011;39910;47.154;27.614;2023-03-01T09:14:56;11.23;;;10.73;;
34737;SDS011;39910;47.154;27.614;2023-03-01T09:17:21;10.82;;;10.32;;
34737;SDS011;39910;47.154;27.614;2023-03-01T09:19:47;10.65;;;10.15;;
34737;SDS011;39910;47.154;27.614;2023-03-01T09:22:12;10.65;;;10.15;;
34737;SDS011;39910;47.154;27.614;2023-03-01T09:24:37;11.05;;;10.55;;
34737;SDS011;39910;47.154;27.614;2023-03-01T09:27:03;11.95;;;11.35;;
34737;SDS011;39910;47.154;27.614;2023-03-01T09:29:28;11.07;;;10.57;;
34737;SDS011;39910;47.154;27.614;2023-03-01T09:31:53;10.73;;;10.23;;
34737;SDS011;39910;47.154;27.614;2023-03-01T09:34:20;11.13;;;10.63;;
34737;SDS011;39910;47.154;27.614;2023-03-01T09:36:48;10.85;;;10.35;;
34737;SDS011;39910;47.154;27.614;2023-03-01T09:39:13;11.15;;;10.65;;
34737;SDS011;39910;47.154;27.614;2023-03-01T09:42:12;10.85;;;10.35;;
34737;SDS011;39910;47.154;27.614;2023-03-01T09:47:24;11.73;;;11.13;;
34737;SDS011;39910;47.154;27.614;2023-03-01T09:50:11;11.15;;;10.65;;
34737;SDS011;39910;47.154;27.614;2023-03-01T09:55:01;11.43;;;10.85;;
34737;SDS011;39910;47.154;27.614;2023-03-01T10:04:51;11.02;;;10.48;;
34737;SDS011;39910;47.154;27.614;2023-03-01T10:09:53;12.63;;;11.93;;
34737;SDS011;39910;47.154;27.614;2023-03-01T10:12:20;12.15;;;11.45;;
34737;SDS011;39910;47.154;27.614;2023-03-01T10:17:25;12.52;;;11.82;;
34737;SDS011;39910;47.154;27.614;2023-03-01T10:19:51;11.27;;;10.68;;
34737;SDS011;39910;47.154;27.614;2023-03-01T10:24:48;12.20;;;11.50;;
34737;SDS011;39910;47.154;27.614;2023-03-01T10:27:23;11.05;;;10.45;;
34737;SDS011;39910;47.154;27.614;2023-03-01T10:32:18;11.05;;;10.45;;
34737;SDS011;39910;47.154;27.614;2023-03-01T10:34:43;11.18;;;10.57;;
34737;SDS011;39910;47.154;27.614;2023-03-01T10:39:37;11.02;;;10.43;;
34737;SDS011;39910;47.154;27.614;2023-03-01T10:42:19;10.70;;;10.10;;
34737;SDS011;39910;47.154;27.614;2023-03-01T10:44:48;10.93;;;10.32;;
34737;SDS011;39910;47.154;27.614;2023-03-01T10:47:23;10.75;;;10.15;;
34737;SDS011;39910;47.154;27.614;2023-03-01T10:49:51;10.60;;;10.00;;
34737;SDS011;39910;47.154;27.614;2023-03-01T10:52:18;11.88;;;11.18;;
34737;SDS011;39910;47.154;27.614;2023-03-01T10:54:51;10.68;;;10.07;;
34737;SDS011;39910;47.154;27.614;2023-03-01T10:57:31;10.15;;;9.65;;
34737;SDS011;39910;47.154;27.614;2023-03-01T11:02:51;10.57;;;9.98;;
34737;SDS011;39910;47.154;27.614;2023-03-01T11:05:26;10.07;;;9.57;;
34737;SDS011;39910;47.154;27.614;2023-03-01T11:07:55;10.57;;;9.98;;
34737;SDS011;39910;47.154;27.614;2023-03-01T11:10:30;11.52;;;10.82;;
34737;SDS011;39910;47.154;27.614;2023-03-01T11:13:13;11.57;;;10.88;;
34737;SDS011;39910;47.154;27.614;2023-03-01T11:15:40;12.23;;;11.45;;
34737;SDS011;39910;47.154;27.614;2023-03-01T11:18:18;10.63;;;10.02;;
34737;SDS011;39910;47.154;27.614;2023-03-01T11:20:44;10.93;;;10.32;;
34737;SDS011;39910;47.154;27.614;2023-03-01T11:23:10;10.52;;;9.93;;
34737;SDS011;39910;47.154;27.614;2023-03-01T11:25:36;11.93;;;11.20;;
34737;SDS011;39910;47.154;27.614;2023-03-01T11:28:03;11.05;;;10.45;;
34737;SDS011;39910;47.154;27.614;2023-03-01T11:30:31;10.60;;;10.00;;
34737;SDS011;39910;47.154;27.614;2023-03-01T11:35:47;13.70;;;12.75;;
34737;SDS011;39910;47.154;27.614;2023-03-01T11:38:23;12.07;;;11.30;;
34737;SDS011;39910;47.154;27.614;2023-03-01T11:40:52;12.30;;;11.50;;
34737;SDS011;39910;47.154;27.614;2023-03-01T11:48:36;12.77;;;11.95;;
34737;SDS011;39910;47.154;27.614;2023-03-01T11:56:19;12.23;;;11.43;;
34737;SDS011;39910;47.154;27.614;2023-03-01T11:58:54;12.20;;;11.40;;
34737;SDS011;39910;47.154;27.614;2023-03-01T12:09:02;12.13;;;11.32;;
34737;SDS011;39910;47.154;27.614;2023-03-01T12:11:39;11.50;;;10.80;;
34737;SDS011;39910;47.154;27.614;2023-03-01T12:24:43;11.18;;;10.50;;
34737;SDS011;39910;47.154;27.614;2023-03-01T12:29:41;11.00;;;10.35;;
34737;SDS011;39910;47.154;27.614;2023-03-01T12:34:46;11.10;;;10.40;;
34737;SDS011;39910;47.154;27.614;2023-03-01T12:47:56;12.05;;;11.30;;
34737;SDS011;39910;47.154;27.614;2023-03-01T12:50:24;11.13;;;10.43;;
34737;SDS011;39910;47.154;27.614;2023-03-01T12:52:57;10.45;;;9.85;;
34737;SDS011;39910;47.154;27.614;2023-03-01T13:00:32;10.52;;;9.93;;
34737;SDS011;39910;47.154;27.614;2023-03-01T13:03:09;12.15;;;11.35;;
34737;SDS011;39910;47.154;27.614;2023-03-01T13:05:42;11.48;;;10.77;;
34737;SDS011;39910;47.154;27.614;2023-03-01T13:08:47;12.18;;;11.38;;
34737;SDS011;39910;47.154;27.614;2023-03-01T13:11:18;12.63;;;11.80;;
34737;SDS011;39910;47.154;27.614;2023-03-01T13:13:44;11.65;;;10.95;;
34737;SDS011;39910;47.154;27.614;2023-03-01T13:19:17;11.75;;;11.05;;
34737;SDS011;39910;47.154;27.614;2023-03-01T13:21:43;11.55;;;10.85;;
34737;SDS011;39910;47.154;27.614;2023-03-01T13:29:43;11.73;;;11.02;;
34737;SDS011;39910;47.154;27.614;2023-03-01T13:32:18;10.57;;;9.98;;
34737;SDS011;39910;47.154;27.614;2023-03-01T13:34:44;11.38;;;10.68;;
34737;SDS011;39910;47.154;27.614;2023-03-01T13:37:13;10.45;;;9.85;;
34737;SDS011;39910;47.154;27.614;2023-03-01T13:39:43;11.90;;;11.15;;
34737;SDS011;39910;47.154;27.614;2023-03-01T13:44:52;12.77;;;11.90;;
34737;SDS011;39910;47.154;27.614;2023-03-01T13:47:17;11.80;;;11.10;;
34737;SDS011;39910;47.154;27.614;2023-03-01T13:49:47;11.02;;;10.40;;
34737;SDS011;39910;47.154;27.614;2023-03-01T13:54:56;10.48;;;9.88;;
34737;SDS011;39910;47.154;27.614;2023-03-01T13:57:24;11.13;;;10.43;;
34737;SDS011;39910;47.154;27.614;2023-03-01T13:59:50;12.05;;;11.30;;
34737;SDS011;39910;47.154;27.614;2023-03-01T14:02:16;11.95;;;11.23;;
34737;SDS011;39910;47.154;27.614;2023-03-01T14:04:41;11.93;;;11.20;;
34737;SDS011;39910;47.154;27.614;2023-03-01T14:09:35;11.57;;;10.88;;
34737;SDS011;39910;47.154;27.614;2023-03-01T14:12:09;11.88;;;11.13;;
34737;SDS011;39910;47.154;27.614;2023-03-01T14:19:56;10.68;;;10.07;;
34737;SDS011;39910;47.154;27.614;2023-03-01T14:22:34;13.65;;;12.75;;
34737;SDS011;39910;47.154;27.614;2023-03-01T14:25:02;9.98;;;9.48;;
34737;SDS011;39910;47.154;27.614;2023-03-01T14:27:30;11.57;;;10.88;;
34737;SDS011;39910;47.154;27.614;2023-03-01T14:30:00;13.02;;;12.13;;
34737;SDS011;39910;47.154;27.614;2023-03-01T14:32:29;10.85;;;10.25;;
34737;SDS011;39910;47.154;27.614;2023-03-01T14:34:55;11.35;;;10.65;;
34737;SDS011;39910;47.154;27.614;2023-03-01T14:37:39;11.18;;;10.50;;
34737;SDS011;39910;47.154;27.614;2023-03-01T14:40:05;11.93;;;11.15;;
34737;SDS011;39910;47.154;27.614;2023-03-01T14:42:31;11.65;;;10.95;;
34737;SDS011;39910;47.154;27.614;2023-03-01T14:44:59;12.65;;;11.85;;
34737;SDS011;39910;47.154;27.614;2023-03-01T14:47:29;10.60;;;10.00;;
34737;SDS011;39910;47.154;27.614;2023-03-01T14:49:59;10.55;;;9.95;;
34737;SDS011;39910;47.154;27.614;2023-03-01T14:52:31;10.25;;;9.65;;
34737;SDS011;39910;47.154;27.614;2023-03-01T14:54:59;12.05;;;11.27;;
34737;SDS011;39910;47.154;27.614;2023-03-01T14:57:25;10.95;;;10.35;;
34737;SDS011;39910;47.154;27.614;2023-03-01T14:59:54;10.52;;;9.93;;
34737;SDS011;39910;47.154;27.614;2023-03-01T15:02:24;11.13;;;10.43;;
34737;SDS011;39910;47.154;27.614;2023-03-01T15:04:51;11.40;;;10.70;;
34737;SDS011;39910;47.154;27.614;2023-03-01T15:07:17;11.20;;;10.50;;
34737;SDS011;39910;47.154;27.614;2023-03-01T15:09:43;11.55;;;10.85;;
34737;SDS011;39910;47.154;27.614;2023-03-01T15:14:54;10.73;;;10.13;;
34737;SDS011;39910;47.154;27.614;2023-03-01T15:19:52;11.52;;;10.82;;
34737;SDS011;39910;47.154;27.614;2023-03-01T15:22:17;11.50;;;10.80;;
34737;SDS011;39910;47.154;27.614;2023-03-01T15:24:46;11.38;;;10.68;;
34737;SDS011;39910;47.154;27.614;2023-03-01T15:27:14;11.68;;;10.98;;
34737;SDS011;39910;47.154;27.614;2023-03-01T15:29:40;11.18;;;10.50;;
34737;SDS011;39910;47.154;27.614;2023-03-01T15:32:26;10.10;;;9.60;;
34737;SDS011;39910;47.154;27.614;2023-03-01T15:34:52;11.80;;;11.10;;
34737;SDS011;39910;47.154;27.614;2023-03-01T15:40:02;11.35;;;10.65;;
34737;SDS011;39910;47.154;27.614;2023-03-01T15:45:10;10.63;;;10.02;;
34737;SDS011;39910;47.154;27.614;2023-03-01T15:47:36;11.43;;;10.73;;
34737;SDS011;39910;47.154;27.614;2023-03-01T15:50:03;11.82;;;11.07;;
34737;SDS011;39910;47.154;27.614;2023-03-01T15:52:35;11.35;;;10.65;;
34737;SDS011;39910;47.154;27.614;2023-03-01T15:55:14;11.75;;;11.05;;
34737;SDS011;39910;47.154;27.614;2023-03-01T15:57:40;11.02;;;10.40;;
34737;SDS011;39910;47.154;27.614;2023-03-01T16:00:05;12.85;;;11.95;;
34737;SDS011;39910;47.154;27.614;2023-03-01T16:02:36;13.63;;;12.68;;
34737;SDS011;39910;47.154;27.614;2023-03-01T16:05:02;12.27;;;11.48;;
34737;SDS011;39910;47.154;27.614;2023-03-01T16:07:28;12.13;;;11.32;;
34737;SDS011;39910;47.154;27.614;2023-03-01T16:09:53;11.25;;;10.55;;
34737;SDS011;39910;47.154;27.614;2023-03-01T16:12:19;11.13;;;10.43;;
34737;SDS011;39910;47.154;27.614;2023-03-01T16:14:46;11.82;;;11.07;;
34737;SDS011;39910;47.154;27.614;2023-03-01T16:17:13;12.32;;;11.52;;
34737;SDS011;39910;47.154;27.614;2023-03-01T16:19:39;12.23;;;11.43;;
34737;SDS011;39910;47.154;27.614;2023-03-01T16:22:06;11.15;;;10.45;;
34737;SDS011;39910;47.154;27.614;2023-03-01T16:24:31;11.68;;;10.98;;
34737;SDS011;39910;47.154;27.614;2023-03-01T16:26:56;10.00;;;9.50;;
34737;SDS011;39910;47.154;27.614;2023-03-01T16:29:21;12.00;;;11.25;;
34737;SDS011;39910;47.154;27.614;2023-03-01T16:31:47;11.88;;;11.10;;